Time;durP1;ratioP1;P1;durP2;ratioP2;P2;SDS_P1;SDS_P2;PMS_P1;PMS_P2;Temp;Humidity;BMP_temperature;BMP_pressure;BME280_temperature;BME280_humidity;BME280_pressure;Samples;Min_cycle;Max_cycle;Signal;HPM_P1;HPM_P2
2021/09/29 00:02:00;;;;;;;4.90;3.80;;;;;;;;;;4880091;29;20478;-85
2021/09/29 00:04:30;;;;;;;8.90;4.27;;;;;;;;;;4913648;29;20484;-84
2021/09/29 00:06:58;;;;;;;4.90;3.53;;;;;;;;;;4910846;29;20538;-85
2021/09/29 00:09:26;;;;;;;7.80;4.80;;;;;;;;;;4881413;29;22567;-85
2021/09/29 00:11:55;;;;;;;5.97;4.20;;;;;;;;;;4885214;29;20565;-84
2021/09/29 00:14:23;;;;;;;8.00;4.77;;;;;;;;;;4884499;29;20472;-84
2021/09/29 00:16:54;;;;;;;7.10;4.67;;;;;;;;;;4898920;29;20483;-85
2021/09/29 00:19:23;;;;;;;6.50;4.87;;;;;;;;;;4898307;29;20525;-84
2021/09/29 00:21:52;;;;;;;8.57;5.13;;;;;;;;;;4892033;29;20488;-85
2021/09/29 00:24:20;;;;;;;18.27;5.20;;;;;;;;;;4895858;29;20558;-85
2021/09/29 00:26:49;;;;;;;8.50;5.30;;;;;;;;;;4897057;29;20484;-85
2021/09/29 00:29:17;;;;;;;5.87;4.80;;;;;;;;;;4900618;29;20481;-85
2021/09/29 00:31:45;;;;;;;8.43;5.20;;;;;;;;;;4878702;29;20550;-85
2021/09/29 00:34:21;;;;;;;6.07;5.00;;;;;;;;;;4899514;29;20472;-85
2021/09/29 00:36:50;;;;;;;6.53;5.33;;;;;;;;;;4918264;29;20980;-84
2021/09/29 00:39:20;;;;;;;9.17;5.43;;;;;;;;;;4917100;29;20488;-85
2021/09/29 00:41:48;;;;;;;9.03;5.73;;;;;;;;;;4906771;29;20477;-84
2021/09/29 00:44:16;;;;;;;7.00;5.53;;;;;;;;;;4912286;29;20480;-85
2021/09/29 00:46:45;;;;;;;6.67;5.03;;;;;;;;;;4913766;29;20472;-84
2021/09/29 00:49:13;;;;;;;8.10;5.00;;;;;;;;;;4905317;29;21299;-85
2021/09/29 00:51:42;;;;;;;8.00;4.90;;;;;;;;;;4911689;29;20484;-84
2021/09/29 00:54:10;;;;;;;6.87;4.90;;;;;;;;;;4908907;29;20473;-84
2021/09/29 00:56:40;;;;;;;7.50;5.20;;;;;;;;;;4901048;29;20472;-85
2021/09/29 00:59:08;;;;;;;6.30;4.07;;;;;;;;;;4885032;29;20493;-84
2021/09/29 01:01:37;;;;;;;6.70;5.40;;;;;;;;;;4908005;29;20508;-85
2021/09/29 01:04:06;;;;;;;8.10;4.20;;;;;;;;;;4936678;29;20473;-84
2021/09/29 01:06:36;;;;;;;6.80;5.00;;;;;;;;;;4937622;29;20476;-85
2021/09/29 01:09:06;;;;;;;8.10;4.47;;;;;;;;;;4935621;29;20475;-85
2021/09/29 01:11:40;;;;;;;7.40;4.37;;;;;;;;;;4931956;29;20471;-85
2021/09/29 01:14:14;;;;;;;7.17;4.90;;;;;;;;;;4896582;29;20522;-84
2021/09/29 01:16:44;;;;;;;7.33;5.27;;;;;;;;;;4912019;29;20567;-85
2021/09/29 01:19:19;;;;;;;6.10;5.17;;;;;;;;;;4908232;29;20488;-84
2021/09/29 01:21:52;;;;;;;7.10;4.77;;;;;;;;;;4909669;29;20998;-85
2021/09/29 01:24:21;;;;;;;10.60;4.90;;;;;;;;;;4913968;29;21181;-84
2021/09/29 01:26:51;;;;;;;6.10;4.93;;;;;;;;;;4895408;29;20624;-84
2021/09/29 01:29:21;;;;;;;9.60;5.73;;;;;;;;;;4922867;29;20497;-84
2021/09/29 01:31:51;;;;;;;5.10;4.60;;;;;;;;;;4921706;29;20478;-84
2021/09/29 01:34:20;;;;;;;8.50;4.47;;;;;;;;;;4905371;29;21035;-85
2021/09/29 01:36:48;;;;;;;7.13;4.90;;;;;;;;;;4916152;29;20468;-85
2021/09/29 01:39:24;;;;;;;6.00;5.20;;;;;;;;;;4916313;29;20473;-84
2021/09/29 01:41:54;;;;;;;8.90;4.90;;;;;;;;;;4913079;29;20497;-84
2021/09/29 01:44:22;;;;;;;8.07;5.50;;;;;;;;;;4892601;29;21018;-84
2021/09/29 01:46:51;;;;;;;12.33;5.73;;;;;;;;;;4888834;29;20480;-84
2021/09/29 01:49:25;;;;;;;8.37;5.57;;;;;;;;;;4917705;29;20490;-84
2021/09/29 01:51:56;;;;;;;8.20;4.73;;;;;;;;;;4917211;29;20494;-85
2021/09/29 01:54:25;;;;;;;6.40;5.17;;;;;;;;;;4897920;29;20481;-84
2021/09/29 01:56:55;;;;;;;9.30;4.90;;;;;;;;;;4905731;29;20478;-84
2021/09/29 01:59:24;;;;;;;8.40;5.00;;;;;;;;;;4899971;29;20483;-84
2021/09/29 02:01:56;;;;;;;8.30;5.20;;;;;;;;;;4917526;29;20488;-85
2021/09/29 02:04:24;;;;;;;6.27;4.77;;;;;;;;;;4921450;29;20455;-85
2021/09/29 02:06:53;;;;;;;7.70;5.10;;;;;;;;;;4920890;29;20472;-85
2021/09/29 02:09:22;;;;;;;6.00;5.27;;;;;;;;;;4916862;29;20478;-84
2021/09/29 02:11:50;;;;;;;4.90;4.37;;;;;;;;;;4917385;29;20460;-84
2021/09/29 02:14:21;;;;;;;10.83;5.63;;;;;;;;;;4901988;29;20438;-84
2021/09/29 02:16:50;;;;;;;6.80;5.13;;;;;;;;;;4902493;29;20840;-84
2021/09/29 02:19:18;;;;;;;5.60;4.30;;;;;;;;;;4902676;29;20491;-84
2021/09/29 02:21:47;;;;;;;7.73;5.30;;;;;;;;;;4913642;29;20450;-84
2021/09/29 02:24:15;;;;;;;5.10;4.60;;;;;;;;;;4921097;29;20814;-85
2021/09/29 02:26:44;;;;;;;6.87;5.03;;;;;;;;;;4920986;29;20449;-84
2021/09/29 02:29:13;;;;;;;5.93;5.13;;;;;;;;;;4920376;29;20484;-84
2021/09/29 02:31:44;;;;;;;6.47;4.43;;;;;;;;;;4920787;29;20468;-85
2021/09/29 02:34:12;;;;;;;8.07;5.23;;;;;;;;;;4921026;29;20434;-84
2021/09/29 02:36:40;;;;;;;7.70;5.40;;;;;;;;;;4914606;29;20450;-84
2021/09/29 02:39:09;;;;;;;7.97;5.00;;;;;;;;;;4901387;29;20580;-84
2021/09/29 02:41:38;;;;;;;4.90;4.27;;;;;;;;;;4906083;29;20450;-84
2021/09/29 02:44:08;;;;;;;6.40;4.40;;;;;;;;;;4920164;29;20451;-85
2021/09/29 02:46:37;;;;;;;7.37;5.20;;;;;;;;;;4920117;29;20568;-84
2021/09/29 02:49:07;;;;;;;8.93;4.00;;;;;;;;;;4919876;29;20465;-84
2021/09/29 02:51:35;;;;;;;4.47;3.60;;;;;;;;;;4920038;29;20439;-84
2021/09/29 02:54:04;;;;;;;6.73;4.60;;;;;;;;;;4919585;29;20455;-85
2021/09/29 02:56:32;;;;;;;6.20;4.83;;;;;;;;;;4920059;29;20806;-84
2021/09/29 02:59:01;;;;;;;6.50;4.73;;;;;;;;;;4919519;29;20503;-85
2021/09/29 03:01:29;;;;;;;5.80;4.60;;;;;;;;;;4919523;29;20485;-84
2021/09/29 03:03:57;;;;;;;7.10;4.17;;;;;;;;;;4920086;29;20442;-84
2021/09/29 03:06:27;;;;;;;8.53;4.63;;;;;;;;;;4912001;29;20464;-85
2021/09/29 03:08:55;;;;;;;12.10;4.20;;;;;;;;;;4900398;29;20462;-84
2021/09/29 03:11:24;;;;;;;9.33;5.17;;;;;;;;;;4918541;29;20465;-85
2021/09/29 03:13:52;;;;;;;11.63;4.50;;;;;;;;;;4920051;29;20449;-85
2021/09/29 03:16:20;;;;;;;7.10;4.97;;;;;;;;;;4919281;29;20461;-85
2021/09/29 03:18:51;;;;;;;4.73;4.10;;;;;;;;;;4918923;29;20477;-84
2021/09/29 03:21:19;;;;;;;5.00;4.60;;;;;;;;;;4919313;29;20449;-85
2021/09/29 03:23:49;;;;;;;6.73;4.47;;;;;;;;;;4919343;29;20460;-84
2021/09/29 03:26:17;;;;;;;10.73;4.77;;;;;;;;;;4918564;29;20461;-85
2021/09/29 03:28:46;;;;;;;7.60;4.60;;;;;;;;;;4918990;29;20817;-84
2021/09/29 03:31:16;;;;;;;11.20;4.17;;;;;;;;;;4919749;29;20438;-86
2021/09/29 03:33:47;;;;;;;6.20;4.27;;;;;;;;;;4918791;29;20457;-85
2021/09/29 03:36:15;;;;;;;5.87;5.27;;;;;;;;;;4918899;29;20448;-85
2021/09/29 03:38:43;;;;;;;6.17;4.53;;;;;;;;;;4919203;29;20489;-86
2021/09/29 03:41:13;;;;;;;6.23;4.43;;;;;;;;;;4918747;29;20480;-85
2021/09/29 03:43:41;;;;;;;5.80;5.10;;;;;;;;;;4918485;29;20468;-85
2021/09/29 03:46:09;;;;;;;9.30;4.73;;;;;;;;;;4910965;29;20457;-86
2021/09/29 03:48:38;;;;;;;6.83;4.90;;;;;;;;;;4917852;29;20493;-85
2021/09/29 03:51:06;;;;;;;8.00;4.70;;;;;;;;;;4918687;29;20449;-86
2021/09/29 03:53:37;;;;;;;5.67;4.50;;;;;;;;;;4918454;29;20464;-86
2021/09/29 03:56:06;;;;;;;4.87;4.20;;;;;;;;;;4918559;29;20437;-86
2021/09/29 03:58:36;;;;;;;8.33;4.70;;;;;;;;;;4918734;29;21194;-86
2021/09/29 04:01:04;;;;;;;6.30;4.30;;;;;;;;;;4917541;29;20460;-86
2021/09/29 04:03:32;;;;;;;8.23;4.50;;;;;;;;;;4917851;29;20441;-85
2021/09/29 04:06:01;;;;;;;6.13;5.00;;;;;;;;;;4899430;29;20454;-86
2021/09/29 04:08:29;;;;;;;5.20;4.70;;;;;;;;;;4899676;29;20464;-86
2021/09/29 04:10:58;;;;;;;8.63;5.47;;;;;;;;;;4898558;29;20470;-85
2021/09/29 04:13:28;;;;;;;7.33;4.90;;;;;;;;;;4915483;29;20461;-85
2021/09/29 04:15:58;;;;;;;18.37;5.33;;;;;;;;;;4899095;29;20841;-86
2021/09/29 04:18:26;;;;;;;8.53;5.20;;;;;;;;;;4907953;29;20972;-85
2021/09/29 04:20:54;;;;;;;6.90;4.73;;;;;;;;;;4917582;29;20481;-85
2021/09/29 04:23:23;;;;;;;7.20;4.60;;;;;;;;;;4910266;29;20450;-86
2021/09/29 04:25:52;;;;;;;7.23;4.43;;;;;;;;;;4911287;29;20464;-85
2021/09/29 04:28:21;;;;;;;9.33;5.10;;;;;;;;;;4917695;29;20467;-84
2021/09/29 04:30:49;;;;;;;9.40;5.17;;;;;;;;;;4918735;29;20983;-84
2021/09/29 04:33:19;;;;;;;8.23;5.50;;;;;;;;;;4918555;29;20438;-85
2021/09/29 04:35:47;;;;;;;6.30;5.70;;;;;;;;;;4919338;29;20450;-85
2021/09/29 04:38:15;;;;;;;6.63;5.10;;;;;;;;;;4918159;29;20484;-84
2021/09/29 04:40:43;;;;;;;6.93;5.17;;;;;;;;;;4918603;29;20485;-84
2021/09/29 04:43:12;;;;;;;9.67;5.07;;;;;;;;;;4918116;29;20471;-85
2021/09/29 04:45:40;;;;;;;11.93;5.60;;;;;;;;;;4917828;29;21077;-84
2021/09/29 04:48:09;;;;;;;7.27;5.10;;;;;;;;;;4917046;29;20948;-84
2021/09/29 04:50:39;;;;;;;10.47;5.63;;;;;;;;;;4918112;29;20472;-85
2021/09/29 04:53:07;;;;;;;7.70;4.97;;;;;;;;;;4917257;29;20828;-85
2021/09/29 04:55:35;;;;;;;7.73;5.50;;;;;;;;;;4917618;29;20441;-84
2021/09/29 04:58:07;;;;;;;9.03;6.33;;;;;;;;;;4917294;29;20856;-85
2021/09/29 05:00:35;;;;;;;6.47;5.60;;;;;;;;;;4908737;29;20475;-85
2021/09/29 05:03:03;;;;;;;5.60;5.10;;;11.40;99.80;;;;;;4911885;29;20996;-84
2021/09/29 05:05:35;;;;;;;7.60;5.37;;;11.40;99.80;;;;;;4908941;29;20458;-84
2021/09/29 05:08:07;;;;;;;7.57;5.50;;;11.40;99.80;;;;;;4908278;29;20479;-83
2021/09/29 05:10:40;;;;;;;6.90;5.60;;;11.40;99.80;;;;;;4896708;29;20486;-82
2021/09/29 05:13:12;;;;;;;8.50;6.03;;;11.40;99.80;;;;;;4908987;29;20470;-83
2021/09/29 05:15:40;;;;;;;7.93;5.47;;;11.40;99.80;;;;;;4914060;29;21398;-83
2021/09/29 05:18:11;;;;;;;12.80;7.10;;;11.30;99.80;;;;;;4906936;29;20460;-84
2021/09/29 05:20:39;;;;;;;6.80;6.10;;;11.20;99.80;;;;;;4912273;29;20564;-83
2021/09/29 05:23:08;;;;;;;11.33;5.40;;;11.20;99.80;;;;;;4912706;29;20468;-83
2021/09/29 05:25:36;;;;;;;14.27;6.30;;;11.20;99.80;;;;;;4913227;29;20464;-82
2021/09/29 05:28:07;;;;;;;10.30;5.87;;;11.10;99.80;;;;;;4910709;29;20469;-84
2021/09/29 05:30:35;;;;;;;10.43;5.90;;;11.10;99.80;;;;;;4915281;29;21093;-84
2021/09/29 05:33:03;;;;;;;9.03;6.00;;;11.10;99.80;;;;;;4914416;29;20499;-83
2021/09/29 05:35:31;;;;;;;7.27;5.83;;;11.10;99.80;;;;;;4914088;29;20462;-83
2021/09/29 05:37:59;;;;;;;7.57;5.63;;;11.10;99.80;;;;;;4911610;29;20460;-83
2021/09/29 05:40:29;;;;;;;7.90;5.90;;;11.20;99.80;;;;;;4911400;29;20492;-83
2021/09/29 05:42:57;;;;;;;7.30;5.93;;;11.20;99.80;;;;;;4911729;29;20846;-83
2021/09/29 05:45:25;;;;;;;7.70;6.20;;;11.20;99.80;;;;;;4914024;29;20998;-83
2021/09/29 05:47:53;;;;;;;8.40;6.47;;;11.20;99.80;;;;;;4913037;29;20455;-82
2021/09/29 05:50:21;;;;;;;10.87;6.27;;;11.20;99.80;;;;;;4914080;29;20986;-83
2021/09/29 05:52:49;;;;;;;9.80;6.63;;;11.30;99.80;;;;;;4915137;29;20452;-83
2021/09/29 05:55:17;;;;;;;8.10;6.13;;;11.30;99.80;;;;;;4910097;29;20493;-83
2021/09/29 05:57:46;;;;;;;10.43;7.17;;;11.40;99.80;;;;;;4915209;29;20474;-84
2021/09/29 06:00:15;;;;;;;10.10;7.23;;;11.40;99.80;;;;;;4915626;29;20494;-83
2021/09/29 06:02:43;;;;;;;9.43;6.20;;;11.40;99.80;;;;;;4908693;29;20460;-82
2021/09/29 06:05:11;;;;;;;11.30;6.53;;;11.60;99.80;;;;;;4909190;29;20469;-84
2021/09/29 06:07:39;;;;;;;8.47;6.50;;;11.50;99.80;;;;;;4911243;29;20475;-82
2021/09/29 06:10:11;;;;;;;11.33;7.07;;;11.60;99.80;;;;;;4911282;29;20501;-82
2021/09/29 06:12:40;;;;;;;11.13;6.90;;;11.60;99.80;;;;;;4914731;29;20442;-84
2021/09/29 06:15:19;;;;;;;13.67;7.37;;;11.60;99.80;;;;;;4911701;29;20556;-82
2021/09/29 06:17:55;;;;;;;12.53;7.30;;;11.60;99.80;;;;;;4914823;29;20464;-84
2021/09/29 06:20:23;;;;;;;12.17;7.17;;;11.70;99.80;;;;;;4912035;29;20495;-83
2021/09/29 06:22:51;;;;;;;9.87;7.20;;;11.70;99.80;;;;;;4915782;29;20460;-83
2021/09/29 06:25:21;;;;;;;9.97;6.80;;;11.80;99.80;;;;;;4913569;29;20467;-84
2021/09/29 06:27:49;;;;;;;11.50;7.73;;;11.90;99.80;;;;;;4912722;29;20798;-83
2021/09/29 06:30:19;;;;;;;13.60;7.97;;;12.00;99.80;;;;;;4911228;29;20486;-82
2021/09/29 06:32:47;;;;;;;12.47;8.17;;;12.00;99.80;;;;;;4911161;29;20814;-82
2021/09/29 06:35:15;;;;;;;11.40;7.63;;;12.10;99.80;;;;;;4919952;29;20545;-81
2021/09/29 06:37:44;;;;;;;12.87;9.23;;;12.10;99.80;;;;;;4919582;29;20532;-82
2021/09/29 06:40:13;;;;;;;11.13;7.00;;;12.10;99.80;;;;;;4918365;29;20488;-82
2021/09/29 06:42:42;;;;;;;18.13;7.10;;;12.10;99.80;;;;;;4918853;29;20445;-82
2021/09/29 06:45:11;;;;;;;14.20;7.77;;;12.10;99.80;;;;;;4919416;29;20460;-82
2021/09/29 06:47:42;;;;;;;9.70;7.30;;;12.10;99.80;;;;;;4919296;29;20464;-82
2021/09/29 06:50:11;;;;;;;12.93;8.17;;;12.00;99.80;;;;;;4919254;29;20472;-83
2021/09/29 06:52:40;;;;;;;12.17;8.30;;;12.00;99.80;;;;;;4910436;29;20475;-83
2021/09/29 06:55:09;;;;;;;12.20;7.63;;;12.10;99.80;;;;;;4906216;29;20475;-83
2021/09/29 06:57:38;;;;;;;11.47;7.10;;;12.10;99.80;;;;;;4912189;29;21459;-83
2021/09/29 07:00:09;;;;;;;10.30;7.57;;;12.20;99.80;;;;;;4910107;29;20488;-83
2021/09/29 07:02:44;;;;;;;12.20;7.70;;;12.20;99.80;;;;;;4913988;29;20468;-82
2021/09/29 07:05:13;;;;;;;12.73;7.47;;;12.20;99.80;;;;;;4908843;29;20479;-83
2021/09/29 07:07:41;;;;;;;13.47;8.27;;;12.40;99.80;;;;;;4909828;29;20809;-83
2021/09/29 07:10:10;;;;;;;12.03;7.63;;;12.50;99.80;;;;;;4905668;29;20931;-83
2021/09/29 07:12:40;;;;;;;12.93;7.27;;;12.60;99.80;;;;;;4914524;29;20901;-83
2021/09/29 07:15:10;;;;;;;14.07;7.33;;;12.70;99.80;;;;;;4911637;29;20477;-83
2021/09/29 07:17:38;;;;;;;12.20;7.17;;;12.70;99.80;;;;;;4912234;29;20465;-83
2021/09/29 07:20:10;;;;;;;9.27;7.40;;;12.90;99.80;;;;;;4910728;29;20493;-84
2021/09/29 07:22:39;;;;;;;11.13;7.30;;;12.90;99.80;;;;;;4910697;29;20466;-83
2021/09/29 07:25:08;;;;;;;11.57;7.40;;;13.10;99.80;;;;;;4907721;29;20482;-83
2021/09/29 07:27:36;;;;;;;15.67;9.57;;;13.10;99.80;;;;;;4903665;29;20472;-84
2021/09/29 07:30:06;;;;;;;17.43;8.47;;;13.20;99.80;;;;;;4913565;29;20474;-85
2021/09/29 07:32:34;;;;;;;13.10;7.93;;;13.30;99.80;;;;;;4911322;29;20556;-83
2021/09/29 07:35:02;;;;;;;11.77;8.03;;;13.40;99.80;;;;;;4910263;29;20487;-84
2021/09/29 07:37:32;;;;;;;13.43;8.73;;;13.60;99.80;;;;;;4912269;29;20495;-84
2021/09/29 07:40:06;;;;;;;12.87;8.47;;;13.90;99.80;;;;;;4912593;29;21011;-85
2021/09/29 07:42:34;;;;;;;10.80;7.80;;;14.10;99.80;;;;;;4916733;29;20471;-84
2021/09/29 07:45:02;;;;;;;12.83;7.83;;;14.40;99.80;;;;;;4912765;29;20465;-84
2021/09/29 07:47:30;;;;;;;11.20;7.67;;;14.70;99.80;;;;;;4910615;29;20536;-84
2021/09/29 07:49:58;;;;;;;10.00;6.27;;;14.80;99.80;;;;;;4910304;29;20478;-84
2021/09/29 07:52:27;;;;;;;14.83;7.70;;;14.70;99.80;;;;;;4908940;29;20869;-84
2021/09/29 07:54:56;;;;;;;13.77;7.03;;;14.70;99.80;;;;;;4912025;29;20467;-84
2021/09/29 07:57:42;;;;;;;12.60;7.63;;;14.70;99.80;;;;;;4911529;29;21005;-84
2021/09/29 08:00:12;;;;;;;10.90;6.80;;;14.40;99.80;;;;;;4908416;29;20493;-84
2021/09/29 08:02:42;;;;;;;10.97;6.53;;;14.40;99.80;;;;;;4907328;29;20450;-84
2021/09/29 08:05:11;;;;;;;13.47;7.47;;;14.30;99.80;;;;;;4911486;29;20461;-85
2021/09/29 08:07:39;;;;;;;13.60;6.90;;;14.40;99.80;;;;;;4914869;29;20540;-85
2021/09/29 08:10:10;;;;;;;11.30;7.53;;;14.40;99.80;;;;;;4913653;29;20489;-84
2021/09/29 08:12:38;;;;;;;10.20;7.03;;;14.30;99.80;;;;;;4911521;29;20472;-84
2021/09/29 08:15:12;;;;;;;12.10;6.53;;;14.40;99.80;;;;;;4911951;29;20469;-84
2021/09/29 08:17:41;;;;;;;14.87;7.00;;;14.40;99.80;;;;;;4913030;29;20462;-84
2021/09/29 08:20:11;;;;;;;7.10;5.80;;;14.40;99.80;;;;;;4912161;29;20501;-84
2021/09/29 08:22:40;;;;;;;8.40;6.30;;;14.60;99.80;;;;;;4908753;29;20459;-84
2021/09/29 08:25:25;;;;;;;6.37;5.73;;;14.60;99.80;;;;;;4905991;29;21155;-84
2021/09/29 08:28:09;;;;;;;18.60;7.33;;;14.80;99.80;;;;;;4911376;29;21052;-84
2021/09/29 08:30:56;;;;;;;12.50;5.60;;;14.90;99.80;;;;;;4908760;29;20479;-84
2021/09/29 08:33:43;;;;;;;8.60;5.57;;;15.10;99.80;;;;;;4909043;29;20454;-84
2021/09/29 08:36:19;;;;;;;9.63;5.10;;;15.20;99.80;;;;;;4912772;29;22075;-84
2021/09/29 08:38:52;;;;;;;10.40;5.30;;;15.20;99.80;;;;;;4914896;29;20817;-84
2021/09/29 08:41:37;;;;;;;5.17;4.57;;;15.40;99.80;;;;;;4912914;29;20522;-84
2021/09/29 08:44:08;;;;;;;9.13;5.17;;;15.70;99.80;;;;;;4911676;29;20462;-85
2021/09/29 08:46:48;;;;;;;9.30;5.30;;;15.70;99.80;;;;;;4911983;29;20824;-84
2021/09/29 08:49:21;;;;;;;8.07;5.00;;;16.30;99.80;;;;;;4913263;29;20881;-85
2021/09/29 08:52:13;;;;;;;6.13;4.87;;;16.30;99.80;;;;;;4912309;29;20463;-84
2021/09/29 08:54:56;;;;;;;5.07;4.47;;;16.30;99.80;;;;;;4913191;29;20466;-84
2021/09/29 09:17:04;;;;;;;6.13;4.33;;;15.80;99.80;;;;;;4911660;29;20491;-84
2021/09/29 09:19:32;;;;;;;8.20;3.70;;;15.90;99.80;;;;;;4915138;29;21255;-85
2021/09/29 09:22:04;;;;;;;9.13;3.43;;;15.90;99.80;;;;;;4916459;29;20944;-84
2021/09/29 09:24:36;;;;;;;9.20;3.37;;;16.10;99.80;;;;;;4910652;29;20464;-84
2021/09/29 09:27:06;;;;;;;4.87;3.53;;;16.40;99.80;;;;;;4911530;29;20558;-84
2021/09/29 09:29:46;;;;;;;5.20;3.37;;;16.60;99.80;;;;;;4912431;29;20598;-84
2021/09/29 09:32:16;;;;;;;9.97;3.83;;;16.80;99.80;;;;;;4912463;29;20460;-84
2021/09/29 09:34:45;;;;;;;6.70;3.90;;;17.10;99.80;;;;;;4912476;29;20478;-84
2021/09/29 09:37:16;;;;;;;5.67;3.90;;;17.40;99.80;;;;;;4911915;29;20465;-84
2021/09/29 09:39:44;;;;;;;4.50;3.70;;;17.50;99.80;;;;;;4916209;29;20535;-84
2021/09/29 09:42:14;;;;;;;9.57;4.17;;;17.50;99.80;;;;;;4914517;29;20485;-84
2021/09/29 09:44:42;;;;;;;11.10;4.20;;;17.50;99.80;;;;;;4912435;29;20524;-85
2021/09/29 09:47:14;;;;;;;5.03;3.70;;;17.40;99.80;;;;;;4915446;29;20555;-84
2021/09/29 09:49:46;;;;;;;6.20;4.20;;;17.50;99.80;;;;;;4907623;29;20494;-84
2021/09/29 09:52:15;;;;;;;6.90;3.93;;;17.30;99.80;;;;;;4909572;29;20467;-84
2021/09/29 09:54:43;;;;;;;4.00;2.97;;;17.40;99.80;;;;;;4914189;29;20447;-84
2021/09/29 09:57:19;;;;;;;5.50;3.60;;;17.40;99.80;;;;;;4908449;29;20822;-85
2021/09/29 09:59:49;;;;;;;6.17;3.10;;;17.50;99.80;;;;;;4912625;29;20539;-84
2021/09/29 10:02:19;;;;;;;7.00;3.53;;;17.60;99.80;;;;;;4908787;29;20480;-85
2021/09/29 10:04:48;;;;;;;6.53;2.80;;;17.80;99.80;;;;;;4910309;29;20940;-85
2021/09/29 10:07:17;;;;;;;2.60;2.13;;;18.00;99.80;;;;;;4914655;29;20530;-84
2021/09/29 10:09:48;;;;;;;5.00;2.40;;;17.80;99.80;;;;;;4915064;29;20495;-84
2021/09/29 10:12:28;;;;;;;4.10;2.80;;;17.90;99.80;;;;;;4915205;29;20454;-84
2021/09/29 10:15:21;;;;;;;4.83;2.53;;;17.90;99.80;;;;;;4914629;29;20486;-85
2021/09/29 10:23:39;;;;;;;4.33;2.10;;;17.80;99.80;;;;;;4918513;29;20471;-84
2021/09/29 10:26:09;;;;;;;11.40;1.97;;;18.00;99.80;;;;;;4910951;29;20466;-84
2021/09/29 10:28:40;;;;;;;6.40;2.10;;;18.10;99.80;;;;;;4912805;29;20477;-85
2021/09/29 10:31:16;;;;;;;4.73;1.90;;;18.30;99.80;;;;;;4914348;29;20470;-85
2021/09/29 10:33:56;;;;;;;3.00;1.87;;;18.50;99.80;;;;;;4913066;29;20471;-84
2021/09/29 10:36:41;;;;;;;4.30;1.60;;;18.30;99.80;;;;;;4909683;29;20495;-85
2021/09/29 10:42:03;;;;;;;7.60;3.20;;;17.80;99.80;;;;;;4915120;29;21026;-85
2021/09/29 10:45:02;;;;;;;3.03;2.07;;;17.60;99.80;;;;;;4916760;29;20459;-84
2021/09/29 10:47:48;;;;;;;5.20;1.67;;;17.50;99.80;;;;;;4913609;29;20497;-84
2021/09/29 10:50:47;;;;;;;7.30;1.80;;;17.50;99.80;;;;;;4915827;29;21006;-85
2021/09/29 11:05:06;;;;;;;9.30;1.60;;;18.10;99.80;;;;;;4913205;29;20465;-86
2021/09/29 11:07:56;;;;;;;5.77;3.83;;;18.00;99.80;;;;;;4908124;29;20465;-84
2021/09/29 11:10:58;;;;;;;5.40;1.50;;;18.10;99.80;;;;;;4914641;29;20856;-85
2021/09/29 11:30:41;;;;;;;2.90;1.23;;;20.20;96.60;;;;;;4889832;29;20826;-84
2021/09/29 11:33:16;;;;;;;3.93;1.10;;;21.50;93.90;;;;;;4911566;29;20458;-84
2021/09/29 11:35:57;;;;;;;1.10;1.00;;;20.70;93.80;;;;;;4911614;29;20840;-86
2021/09/29 12:09:35;;;;;;;2.80;1.87;;;15.70;99.80;;;;;;4913164;29;20521;-83
2021/09/29 12:12:17;;;;;;;4.00;1.73;;;15.70;99.80;;;;;;4917847;29;20484;-83
2021/09/29 12:14:48;;;;;;;2.77;1.70;;;15.50;99.80;;;;;;4912102;29;20488;-84
2021/09/29 12:17:24;;;;;;;3.33;2.10;;;15.30;99.80;;;;;;4913741;29;20466;-82
2021/09/29 12:19:56;;;;;;;3.57;1.73;;;14.80;99.80;;;;;;4912344;29;20496;-83
2021/09/29 12:22:26;;;;;;;4.10;1.37;;;14.40;99.80;;;;;;4912714;29;20851;-83
2021/09/29 12:24:59;;;;;;;1.97;1.10;;;14.00;99.80;;;;;;4913846;29;20498;-83
2021/09/29 12:27:34;;;;;;;1.20;1.10;;;14.00;99.80;;;;;;4915895;29;20467;-83
2021/09/29 12:30:30;;;;;;;4.03;1.20;;;13.40;99.80;;;;;;4912080;29;20512;-83
2021/09/29 12:33:15;;;;;;;1.50;1.20;;;13.40;99.80;;;;;;4914894;29;20460;-83
2021/09/29 12:35:47;;;;;;;5.00;1.10;;;13.10;99.80;;;;;;4909358;29;21433;-82
2021/09/29 12:38:15;;;;;;;3.07;1.20;;;13.10;99.80;;;;;;4915122;29;20556;-84
2021/09/29 12:40:45;;;;;;;2.00;1.00;;;13.00;99.80;;;;;;4917293;29;20496;-83
2021/09/29 12:43:15;;;;;;;1.97;1.30;;;12.90;99.80;;;;;;4911268;29;20579;-83
2021/09/29 12:45:48;;;;;;;1.03;0.93;;;12.90;99.80;;;;;;4915683;29;20460;-84
2021/09/29 12:48:19;;;;;;;2.13;1.33;;;12.80;99.80;;;;;;4923066;29;20458;-84
2021/09/29 12:50:52;;;;;;;1.80;1.37;;;12.80;99.80;;;;;;4915977;29;21107;-83
2021/09/29 12:53:25;;;;;;;4.77;1.50;;;12.80;99.80;;;;;;4913076;29;20453;-83
2021/09/29 12:55:57;;;;;;;1.50;1.40;;;12.80;99.80;;;;;;4915320;29;20461;-83
2021/09/29 12:58:27;;;;;;;1.30;1.20;;;12.90;99.80;;;;;;4916135;29;20456;-83
2021/09/29 13:00:57;;;;;;;2.90;1.73;;;12.90;99.80;;;;;;4903753;29;20482;-83
2021/09/29 13:03:25;;;;;;;1.87;1.60;;;13.10;99.80;;;;;;4915337;29;20512;-83
2021/09/29 13:05:54;;;;;;;2.60;1.40;;;13.20;99.80;;;;;;4913227;29;20469;-82
2021/09/29 13:08:22;;;;;;;2.80;1.50;;;13.20;99.80;;;;;;4911604;29;20505;-83
2021/09/29 13:10:51;;;;;;;1.67;1.57;;;13.40;99.80;;;;;;4914593;29;20476;-83
2021/09/29 13:13:19;;;;;;;3.43;1.80;;;13.60;99.80;;;;;;4918736;29;20974;-83
2021/09/29 13:15:50;;;;;;;2.43;1.80;;;14.00;99.80;;;;;;4918249;29;20473;-83
2021/09/29 13:18:26;;;;;;;2.93;1.57;;;14.50;99.80;;;;;;4920155;29;21267;-83
2021/09/29 13:20:58;;;;;;;3.27;1.80;;;14.70;99.80;;;;;;4916923;29;20477;-83
2021/09/29 13:23:30;;;;;;;2.17;1.83;;;14.80;99.80;;;;;;4916524;29;20478;-83
2021/09/29 13:26:26;;;;;;;1.97;1.87;;;14.80;99.80;;;;;;4912542;29;20470;-83
2021/09/29 13:37:20;;;;;;;2.80;1.77;;;16.20;99.80;;;;;;4856048;29;20844;-84
2021/09/29 13:39:50;;;;;;;2.33;1.90;;;16.20;99.80;;;;;;4900487;29;20878;-84
2021/09/29 13:42:18;;;;;;;1.70;1.60;;;16.20;99.80;;;;;;4907532;29;20849;-84
2021/09/29 13:44:46;;;;;;;2.80;1.70;;;16.20;99.80;;;;;;4915977;29;20463;-85
2021/09/29 13:47:14;;;;;;;4.33;2.13;;;16.20;99.80;;;;;;4909508;29;20470;-86
2021/09/29 13:49:44;;;;;;;3.70;2.10;;;16.20;99.80;;;;;;4918762;29;21236;-83
2021/09/29 13:52:14;;;;;;;1.70;1.53;;;16.10;99.80;;;;;;4910791;29;20515;-84
2021/09/29 13:54:43;;;;;;;4.63;1.60;;;16.10;99.80;;;;;;4913200;29;20838;-84
2021/09/29 13:57:16;;;;;;;3.30;1.60;;;16.20;99.80;;;;;;4915980;29;20488;-85
2021/09/29 13:59:58;;;;;;;2.10;1.60;;;16.40;99.80;;;;;;4915469;29;20494;-83
2021/09/29 14:30:06;;;;;;;2.37;1.40;;;16.80;99.80;;;;;;4909057;29;20500;-83
2021/09/29 14:32:43;;;;;;;1.93;1.73;;;16.60;99.80;;;;;;4912279;29;20494;-83
2021/09/29 14:35:11;;;;;;;2.43;1.63;;;16.40;99.80;;;;;;4912281;29;20466;-85
2021/09/29 14:37:40;;;;;;;1.20;1.10;;;16.20;99.80;;;;;;4912767;29;20470;-83
2021/09/29 14:40:10;;;;;;;3.33;1.30;;;16.10;99.80;;;;;;4915972;29;20534;-83
2021/09/29 14:42:38;;;;;;;2.47;1.43;;;16.00;99.80;;;;;;4912832;29;20462;-83
2021/09/29 14:45:07;;;;;;;2.57;1.90;;;15.80;99.80;;;;;;4914583;29;20477;-83
2021/09/29 14:47:35;;;;;;;1.33;1.23;;;15.80;99.80;;;;;;4916519;29;20460;-83
2021/09/29 14:50:04;;;;;;;1.50;1.20;;;15.80;99.80;;;;;;4916955;29;20985;-83
2021/09/29 14:52:32;;;;;;;3.80;1.70;;;15.80;99.80;;;;;;4915507;29;20549;-83
2021/09/29 14:55:01;;;;;;;0.90;0.80;;;15.70;99.80;;;;;;4913299;29;20836;-82
2021/09/29 14:57:29;;;;;;;1.00;0.90;;;15.70;99.80;;;;;;4915570;29;20456;-83
2021/09/29 14:59:57;;;;;;;0.93;0.70;;;15.60;99.80;;;;;;4913892;29;20498;-83
2021/09/29 15:02:25;;;;;;;1.73;0.90;;;15.50;99.80;;;;;;4912813;29;20464;-83
2021/09/29 15:04:54;;;;;;;1.97;1.13;;;15.40;99.80;;;;;;4920554;29;20485;-83
2021/09/29 15:07:22;;;;;;;1.00;0.90;;;15.40;99.80;;;;;;4923869;29;20471;-82
2021/09/29 15:09:50;;;;;;;3.40;1.50;;;16.00;99.80;;;;;;4917558;29;20569;-82
2021/09/29 15:12:19;;;;;;;2.83;2.03;;;16.60;99.80;;;;;;4917915;29;20474;-82
2021/09/29 15:14:56;;;;;;;1.60;1.30;;;16.80;99.80;;;;;;4918443;29;20453;-82
2021/09/29 15:17:33;;;;;;;4.17;3.10;;;16.60;99.80;;;;;;4930705;29;20473;-82
2021/09/29 15:20:06;;;;;;;4.07;2.23;;;16.40;99.80;;;;;;4928224;29;21099;-82
2021/09/29 15:28:25;;;;;;;1.40;1.30;;;16.70;99.40;;;;;;4904343;29;20844;-82
2021/09/29 15:47:28;;;;;;;0.80;0.70;;;16.20;98.60;;;;;;4917437;29;20456;-83
2021/09/29 15:52:53;;;;;;;0.80;0.60;;;15.90;96.10;;;;;;4912982;29;20475;-82
2021/09/29 15:55:30;;;;;;;4.50;0.83;;;15.90;96.00;;;;;;4918043;29;20442;-83
2021/09/29 16:01:00;;;;;;;1.90;0.90;;;15.50;99.80;;;;;;4881654;29;20505;-83
2021/09/29 16:06:23;;;;;;;1.33;0.80;;;15.50;99.80;;;;;;4899737;29;20779;-83
2021/09/29 16:09:12;;;;;;;0.80;0.70;;;15.50;99.80;;;;;;4899810;29;20530;-82
2021/09/29 16:17:18;;;;;;;1.00;0.77;;;15.60;98.50;;;;;;4899142;29;20843;-83
2021/09/29 16:30:48;;;;;;;0.90;0.80;;;14.80;99.80;;;;;;4918831;29;20466;-83
2021/09/29 16:33:33;;;;;;;1.00;0.80;;;14.60;99.80;;;;;;4917509;29;20449;-84
2021/09/29 16:36:04;;;;;;;1.77;0.80;;;14.40;99.80;;;;;;4918235;29;20458;-85